Time,TemperatureF,DewpointF,PressureIn,WindDirection,WindDirectionDegrees,WindSpeedMPH,WindSpeedGustMPH,Humidity,HourlyPrecipIn,Conditions,Clouds,dailyrainin,SoftwareType,DateUTC
2013-01-02 00:00:00,11.3,4.0,30.18,SW,225,0.7,2.5,72,0.00,,,0.00,WUHU216HW,2013-01-02 06:00:00,
2013-01-02 00:05:00,11.2,3.8,30.19,SW,225,1.6,3.4,72,0.00,,,0.00,WUHU216HW,2013-01-02 06:05:00,
2013-01-02 00:10:00,11.2,3.8,30.18,SW,225,2.7,3.4,72,0.00,,,0.00,WUHU216HW,2013-01-02 06:10:00,
2013-01-02 00:15:00,11.2,4.2,30.18,SW,225,0.9,3.1,73,0.00,,,0.00,WUHU216HW,2013-01-02 06:15:00,
2013-01-02 00:20:00,11.2,4.2,30.17,SSW,203,0.2,2.9,73,0.00,,,0.00,WUHU216HW,2013-01-02 06:20:00,
2013-01-02 00:25:00,11.5,4.8,30.18,SW,225,0.0,1.3,74,0.00,,,0.00,WUHU216HW,2013-01-02 06:25:00,
2013-01-02 00:30:00,11.5,4.8,30.17,SW,225,0.2,0.4,74,0.00,,,0.00,WUHU216HW,2013-01-02 06:30:00,
2013-01-02 00:35:00,11.7,5.0,30.18,West,270,1.1,1.6,74,0.00,,,0.00,WUHU216HW,2013-01-02 06:35:00,
2013-01-02 00:40:00,11.7,5.0,30.18,WNW,293,2.2,2.2,74,0.00,,,0.00,WUHU216HW,2013-01-02 06:40:00,
2013-01-02 00:45:00,11.5,4.5,30.17,WSW,248,2.2,3.1,73,0.00,,,0.00,WUHU216HW,2013-01-02 06:45:00,
2013-01-02 00:50:00,11.5,4.8,30.17,WSW,248,2.9,3.4,74,0.00,,,0.00,WUHU216HW,2013-01-02 06:50:00,
2013-01-02 00:55:00,11.2,4.4,30.17,SW,225,1.1,3.4,74,0.00,,,0.00,WUHU216HW,2013-01-02 06:55:00,
2013-01-02 01:00:00,11.2,4.4,30.17,SW,225,1.8,2.7,74,0.00,,,0.00,WUHU216HW,2013-01-02 07:00:00,
2013-01-02 01:05:00,11.2,4.4,30.18,SW,225,1.1,2.5,74,0.00,,,0.00,WUHU216HW,2013-01-02 07:05:00,
2013-01-02 01:10:00,11.2,4.4,30.16,SW,225,1.1,2.2,74,0.00,,,0.00,WUHU216HW,2013-01-02 07:10:00,
2013-01-02 01:15:00,11.3,4.6,30.16,SSW,203,1.1,1.8,74,0.00,,,0.00,WUHU216HW,2013-01-02 07:15:00,
2013-01-02 01:20:00,11.2,4.4,30.16,SSW,203,1.1,1.6,74,0.00,,,0.00,WUHU216HW,2013-01-02 07:20:00,
2013-01-02 01:25:00,10.8,4.1,30.16,SSW,203,0.4,1.6,74,0.00,,,0.00,WUHU216HW,2013-01-02 07:25:00,
2013-01-02 01:30:00,10.4,3.4,30.16,SSW,203,0.9,1.3,73,0.00,,,0.00,WUHU216HW,2013-01-02 07:30:00,
2013-01-02 01:35:00,10.4,3.4,30.16,SSW,203,0.9,1.3,73,0.00,,,0.00,WUHU216HW,2013-01-02 07:35:00,
2013-01-02 01:40:00,10.3,3.3,30.16,SSW,203,0.4,0.9,73,0.00,,,0.00,WUHU216HW,2013-01-02 07:40:00,
2013-01-02 01:45:00,10.3,3.5,30.16,SSW,203,1.1,1.1,74,0.00,,,0.00,WUHU216HW,2013-01-02 07:45:00,
2013-01-02 01:50:00,10.1,3.3,30.16,SSW,203,0.4,1.1,74,0.00,,,0.00,WUHU216HW,2013-01-02 07:50:00,
2013-01-02 01:55:00,10.1,3.3,30.15,South,180,0.4,1.1,74,0.00,,,0.00,WUHU216HW,2013-01-02 07:55:00,
2013-01-02 02:00:00,10.1,3.6,30.15,SSW,203,0.4,0.4,75,0.00,,,0.00,WUHU216HW,2013-01-02 08:00:00,
2013-01-02 02:05:00,10.1,3.6,30.15,SSW,203,0.7,0.7,75,0.00,,,0.00,WUHU216HW,2013-01-02 08:05:00,
2013-01-02 02:10:00,10.1,3.6,30.15,SSW,203,0.9,0.9,75,0.00,,,0.00,WUHU216HW,2013-01-02 08:10:00,
2013-01-02 02:15:00,10.1,3.6,30.15,SSW,203,0.7,1.1,75,0.00,,,0.00,WUHU216HW,2013-01-02 08:15:00,
2013-01-02 02:20:00,9.9,3.5,30.15,SW,225,0.9,1.6,75,0.00,,,0.00,WUHU216HW,2013-01-02 08:20:00,
2013-01-02 02:25:00,9.9,3.5,30.16,SW,225,1.6,1.6,75,0.00,,,0.00,WUHU216HW,2013-01-02 08:25:00,
2013-01-02 02:30:00,9.9,3.5,30.15,SSW,203,0.9,1.6,75,0.00,,,0.00,WUHU216HW,2013-01-02 08:30:00,
2013-01-02 02:35:00,9.9,3.5,30.15,SSW,203,0.4,1.6,75,0.00,,,0.00,WUHU216HW,2013-01-02 08:35:00,
2013-01-02 02:40:00,9.9,3.5,30.16,SSW,203,2.5,2.5,75,0.00,,,0.00,WUHU216HW,2013-01-02 08:40:00,
2013-01-02 02:45:00,9.7,3.3,30.16,SSW,203,2.2,2.5,75,0.00,,,0.00,WUHU216HW,2013-01-02 08:45:00,
2013-01-02 02:50:00,9.5,3.2,30.15,SSW,203,2.0,3.4,75,0.00,,,0.00,WUHU216HW,2013-01-02 08:50:00,
2013-01-02 02:55:00,9.2,3.4,30.15,SW,225,1.8,3.4,77,0.00,,,0.00,WUHU216HW,2013-01-02 08:55:00,
2013-01-02 03:00:00,9.4,3.6,30.15,SW,225,1.8,2.5,77,0.00,,,0.00,WUHU216HW,2013-01-02 09:00:00,
2013-01-02 03:05:00,9.4,3.9,30.16,SSW,203,1.8,2.5,78,0.00,,,0.00,WUHU216HW,2013-01-02 09:05:00,
2013-01-02 03:10:00,9.4,3.9,30.15,SSW,203,2.0,3.1,78,0.00,,,0.00,WUHU216HW,2013-01-02 09:10:00,
2013-01-02 03:15:00,9.2,3.7,30.15,SSW,203,3.1,3.1,78,0.00,,,0.00,WUHU216HW,2013-01-02 09:15:00,
2013-01-02 03:20:00,9.4,4.1,30.15,SSW,203,2.5,3.1,79,0.00,,,0.00,WUHU216HW,2013-01-02 09:20:00,
2013-01-02 03:25:00,9.4,3.9,30.15,SSW,203,3.1,3.6,78,0.00,,,0.00,WUHU216HW,2013-01-02 09:25:00,
2013-01-02 03:30:00,9.5,4.3,30.15,SSW,203,3.8,3.8,79,0.00,,,0.00,WUHU216HW,2013-01-02 09:30:00,
2013-01-02 03:35:00,9.7,4.5,30.15,SSW,203,2.7,4.9,79,0.00,,,0.00,WUHU216HW,2013-01-02 09:35:00,
2013-01-02 03:40:00,9.9,4.6,30.14,SW,225,2.9,4.9,79,0.00,,,0.00,WUHU216HW,2013-01-02 09:40:00,
2013-01-02 03:45:00,10.3,5.2,30.14,SSW,203,2.5,6.3,80,0.00,,,0.00,WUHU216HW,2013-01-02 09:45:00,
2013-01-02 03:50:00,10.4,5.4,30.14,SSW,203,2.7,6.3,80,0.00,,,0.00,WUHU216HW,2013-01-02 09:50:00,
2013-01-02 03:55:00,10.4,5.4,30.14,SW,225,2.9,4.7,80,0.00,,,0.00,WUHU216HW,2013-01-02 09:55:00,
2013-01-02 04:00:00,10.6,5.9,30.14,SSW,203,2.5,4.0,81,0.00,,,0.00,WUHU216HW,2013-01-02 10:00:00,
2013-01-02 04:05:00,10.6,5.9,30.14,SW,225,4.3,4.3,81,0.00,,,0.00,WUHU216HW,2013-01-02 10:05:00,
2013-01-02 04:10:00,11.0,6.2,30.14,SW,225,4.0,4.3,81,0.00,,,0.00,WUHU216HW,2013-01-02 10:10:00,
2013-01-02 04:15:00,11.2,6.4,30.13,SW,225,4.0,4.0,81,0.00,,,0.00,WUHU216HW,2013-01-02 10:15:00,
2013-01-02 04:20:00,11.2,6.4,30.12,SSW,203,2.2,4.3,81,0.00,,,0.00,WUHU216HW,2013-01-02 10:20:00,
2013-01-02 04:25:00,11.2,6.4,30.13,SSW,203,3.4,4.3,81,0.00,,,0.00,WUHU216HW,2013-01-02 10:25:00,
2013-01-02 04:30:00,11.2,6.4,30.13,SW,225,2.2,3.4,81,0.00,,,0.00,WUHU216HW,2013-01-02 10:30:00,
2013-01-02 04:35:00,11.2,6.4,30.13,SSW,203,2.5,3.8,81,0.00,,,0.00,WUHU216HW,2013-01-02 10:35:00,
2013-01-02 04:40:00,11.2,6.7,30.13,South,180,2.2,3.8,82,0.00,,,0.00,WUHU216HW,2013-01-02 10:40:00,
2013-01-02 04:45:00,11.2,6.4,30.13,SSW,203,1.8,3.4,81,0.00,,,0.00,WUHU216HW,2013-01-02 10:45:00,
2013-01-02 04:50:00,11.2,6.7,30.13,SSW,203,4.0,4.0,82,0.00,,,0.00,WUHU216HW,2013-01-02 10:50:00,
2013-01-02 04:55:00,11.0,6.2,30.13,SSW,203,3.4,4.0,81,0.00,,,0.00,WUHU216HW,2013-01-02 10:55:00,
2013-01-02 05:00:00,11.0,6.2,30.13,SW,225,2.0,4.0,81,0.00,,,0.00,WUHU216HW,2013-01-02 11:00:00,
2013-01-02 05:05:00,10.8,6.0,30.13,SW,225,1.3,3.4,81,0.00,,,0.00,WUHU216HW,2013-01-02 11:05:00,
2013-01-02 05:10:00,10.8,6.0,30.13,SW,225,2.2,2.2,81,0.00,,,0.00,WUHU216HW,2013-01-02 11:10:00,
2013-01-02 05:15:00,10.8,6.0,30.13,SW,225,1.6,2.2,81,0.00,,,0.00,WUHU216HW,2013-01-02 11:15:00,
2013-01-02 05:20:00,11.2,6.4,30.13,SW,225,1.6,2.2,81,0.00,,,0.00,WUHU216HW,2013-01-02 11:20:00,
2013-01-02 05:25:00,11.3,6.6,30.13,SW,225,1.6,2.0,81,0.00,,,0.00,WUHU216HW,2013-01-02 11:25:00,
2013-01-02 05:30:00,11.3,6.6,30.13,SSW,203,0.9,2.2,81,0.00,,,0.00,WUHU216HW,2013-01-02 11:30:00,
2013-01-02 05:35:00,11.3,6.6,30.13,SSW,203,1.1,2.2,81,0.00,,,0.00,WUHU216HW,2013-01-02 11:35:00,
2013-01-02 05:40:00,11.2,6.4,30.13,SSW,203,1.8,1.8,81,0.00,,,0.00,WUHU216HW,2013-01-02 11:40:00,
2013-01-02 05:45:00,11.2,6.4,30.13,SSW,203,1.8,1.8,81,0.00,,,0.00,WUHU216HW,2013-01-02 11:45:00,
2013-01-02 05:50:00,10.8,6.0,30.12,SW,225,1.8,2.5,81,0.00,,,0.00,WUHU216HW,2013-01-02 11:50:00,
2013-01-02 05:55:00,10.6,5.9,30.12,SSW,203,1.6,2.5,81,0.00,,,0.00,WUHU216HW,2013-01-02 11:55:00,
2013-01-02 06:00:00,10.4,5.4,30.12,SSW,203,2.2,2.2,80,0.00,,,0.00,WUHU216HW,2013-01-02 12:00:00,
2013-01-02 06:05:00,10.3,5.2,30.13,SSW,203,2.0,3.6,80,0.00,,,0.00,WUHU216HW,2013-01-02 12:05:00,
2013-01-02 06:10:00,9.9,5.0,30.13,SW,225,1.8,3.6,80,0.00,,,0.00,WUHU216HW,2013-01-02 12:10:00,
2013-01-02 06:15:00,10.1,5.0,30.12,SSW,203,2.2,2.9,80,0.00,,,0.00,WUHU216HW,2013-01-02 12:15:00,
2013-01-02 06:20:00,9.9,5.0,30.12,SW,225,2.2,2.2,80,0.00,,,0.00,WUHU216HW,2013-01-02 12:20:00,
2013-01-02 06:25:00,9.9,5.2,30.11,SW,225,2.5,2.5,81,0.00,,,0.00,WUHU216HW,2013-01-02 12:25:00,
2013-01-02 06:30:00,9.7,5.1,30.11,SW,225,1.3,2.9,81,0.00,,,0.00,WUHU216HW,2013-01-02 12:30:00,
2013-01-02 06:35:00,9.7,5.1,30.11,SSW,203,2.7,2.9,81,0.00,,,0.00,WUHU216HW,2013-01-02 12:35:00,
2013-01-02 06:40:00,10.1,5.6,30.11,SSW,203,2.5,3.6,82,0.00,,,0.00,WUHU216HW,2013-01-02 12:40:00,
2013-01-02 06:45:00,10.3,5.8,30.10,South,180,2.5,3.6,82,0.00,,,0.00,WUHU216HW,2013-01-02 12:45:00,
2013-01-02 06:51:00,10.3,5.8,30.10,SSW,203,2.5,2.9,82,0.00,,,0.00,WUHU216HW,2013-01-02 12:51:00,
2013-01-02 06:56:00,10.4,6.2,30.11,SSW,203,4.0,4.0,83,0.00,,,0.00,WUHU216HW,2013-01-02 12:56:00,
2013-01-02 07:01:00,10.6,6.4,30.11,SSW,203,3.8,4.0,83,0.00,,,0.00,WUHU216HW,2013-01-02 13:01:00,
2013-01-02 07:06:00,10.8,6.6,30.11,SSW,203,1.8,4.7,83,0.00,,,0.00,WUHU216HW,2013-01-02 13:06:00,
2013-01-02 07:11:00,11.2,6.9,30.10,SSW,203,3.1,4.7,83,0.00,,,0.00,WUHU216HW,2013-01-02 13:11:00,
2013-01-02 07:16:00,11.5,7.3,30.10,SW,225,4.0,4.7,83,0.00,,,0.00,WUHU216HW,2013-01-02 13:16:00,
2013-01-02 07:21:00,11.9,7.7,30.10,SSW,203,2.9,4.7,83,0.00,,,0.00,WUHU216HW,2013-01-02 13:21:00,
2013-01-02 07:26:00,12.4,9.0,30.10,SSW,203,4.7,6.3,86,0.00,,,0.00,WUHU216HW,2013-01-02 13:26:00,
2013-01-02 07:31:00,12.8,9.1,30.10,SW,225,2.5,6.3,85,0.00,,,0.00,WUHU216HW,2013-01-02 13:31:00,
2013-01-02 07:36:00,13.0,9.0,30.10,SW,225,4.3,6.0,84,0.00,,,0.00,WUHU216HW,2013-01-02 13:36:00,
2013-01-02 07:41:00,13.0,8.7,30.10,SW,225,5.8,5.8,83,0.00,,,0.00,WUHU216HW,2013-01-02 13:41:00,
2013-01-02 07:46:00,12.8,8.6,30.10,SW,225,4.0,5.8,83,0.00,,,0.00,WUHU216HW,2013-01-02 13:46:00,
2013-01-02 07:51:00,12.6,8.4,30.10,SW,225,3.4,5.1,83,0.00,,,0.00,WUHU216HW,2013-01-02 13:51:00,
2013-01-02 07:56:00,12.6,8.4,30.09,SSW,203,3.8,5.1,83,0.00,,,0.00,WUHU216HW,2013-01-02 13:56:00,
2013-01-02 08:01:00,12.8,8.6,30.09,SSW,203,3.8,6.3,83,0.00,,,0.00,WUHU216HW,2013-01-02 14:01:00,
2013-01-02 08:06:00,13.1,8.9,30.10,SW,225,3.8,6.3,83,0.00,,,0.00,WUHU216HW,2013-01-02 14:06:00,
2013-01-02 08:11:00,13.3,9.4,30.09,SSW,203,4.9,5.4,84,0.00,,,0.00,WUHU216HW,2013-01-02 14:11:00,
2013-01-02 08:16:00,14.4,10.5,30.10,SSW,203,4.0,5.4,84,0.00,,,0.00,WUHU216HW,2013-01-02 14:16:00,
2013-01-02 08:21:00,15.5,11.3,30.10,SW,225,4.5,4.7,83,0.00,,,0.00,WUHU216HW,2013-01-02 14:21:00,
2013-01-02 08:26:00,16.2,11.9,30.10,SW,225,3.4,5.4,83,0.00,,,0.00,WUHU216HW,2013-01-02 14:26:00,
2013-01-02 08:31:00,16.7,12.2,30.10,SW,225,5.6,6.3,82,0.00,,,0.00,WUHU216HW,2013-01-02 14:31:00,
2013-01-02 08:36:00,17.3,12.3,30.10,SW,225,6.0,6.3,81,0.00,,,0.00,WUHU216HW,2013-01-02 14:36:00,
2013-01-02 08:41:00,17.6,12.7,30.10,SW,225,6.3,6.5,81,0.00,,,0.00,WUHU216HW,2013-01-02 14:41:00,
2013-01-02 08:46:00,18.4,13.4,30.10,SW,225,5.1,7.6,81,0.00,,,0.00,WUHU216HW,2013-01-02 14:46:00,
2013-01-02 08:51:00,18.9,13.7,30.10,SW,225,6.3,7.6,80,0.00,,,0.00,WUHU216HW,2013-01-02 14:51:00,
2013-01-02 08:56:00,19.4,14.0,30.10,SSW,203,6.3,8.7,79,0.00,,,0.00,WUHU216HW,2013-01-02 14:56:00,
2013-01-02 09:01:00,19.8,14.0,30.10,SSW,203,7.2,8.7,78,0.00,,,0.00,WUHU216HW,2013-01-02 15:01:00,
2013-01-02 09:06:00,20.3,14.5,30.10,SSW,203,5.8,7.2,78,0.00,,,0.00,WUHU216HW,2013-01-02 15:06:00,
2013-01-02 09:11:00,21.2,15.1,30.10,SW,225,6.3,7.6,77,0.00,,,0.00,WUHU216HW,2013-01-02 15:11:00,
2013-01-02 09:16:00,21.8,15.7,30.09,SSW,203,4.0,7.6,77,0.00,,,0.00,WUHU216HW,2013-01-02 15:16:00,
2013-01-02 09:21:00,22.5,16.0,30.09,SW,225,5.4,7.6,76,0.00,,,0.00,WUHU216HW,2013-01-02 15:21:00,
2013-01-02 09:26:00,23.4,16.7,30.09,SW,225,7.2,7.6,75,0.00,,,0.00,WUHU216HW,2013-01-02 15:26:00,
2013-01-02 09:31:00,24.3,17.2,30.09,SW,225,7.8,7.8,74,0.00,,,0.00,WUHU216HW,2013-01-02 15:31:00,
2013-01-02 09:36:00,25.0,17.6,30.10,SW,225,5.4,7.8,73,0.00,,,0.00,WUHU216HW,2013-01-02 15:36:00,
2013-01-02 09:41:00,25.6,17.7,30.10,WSW,248,5.4,6.7,72,0.00,,,0.00,WUHU216HW,2013-01-02 15:41:00,
2013-01-02 09:46:00,26.5,18.6,30.10,SW,225,5.4,8.1,72,0.00,,,0.00,WUHU216HW,2013-01-02 15:46:00,
2013-01-02 09:50:00,27.4,18.9,30.11,SW,225,5.4,8.1,70,0.01,,,0.02,WUHU216HW,2013-01-02 15:50:00,
2013-01-02 09:55:00,28.3,19.1,30.12,SW,225,4.0,7.4,68,0.01,,,0.02,WUHU216HW,2013-01-02 15:55:00,
2013-01-02 10:00:00,29.7,20.4,30.12,West,270,2.7,6.3,68,0.01,,,0.02,WUHU216HW,2013-01-02 16:00:00,
2013-01-02 10:05:00,30.6,20.5,30.13,SW,225,6.3,6.3,66,0.01,,,0.02,WUHU216HW,2013-01-02 16:05:00,
2013-01-02 10:10:00,31.0,20.9,30.13,WSW,248,5.6,6.3,66,0.01,,,0.02,WUHU216HW,2013-01-02 16:10:00,
2013-01-02 10:15:00,31.3,20.9,30.13,WSW,248,6.9,6.9,65,0.01,,,0.02,WUHU216HW,2013-01-02 16:15:00,
2013-01-02 10:20:00,31.5,20.7,30.13,SW,225,7.4,7.4,64,0.01,,,0.02,WUHU216HW,2013-01-02 16:20:00,
2013-01-02 10:25:00,31.9,21.1,30.13,WSW,248,7.6,7.6,64,0.01,,,0.02,WUHU216HW,2013-01-02 16:25:00,
2013-01-02 10:30:00,32.6,22.1,30.13,SW,225,3.6,7.6,65,0.01,,,0.02,WUHU216HW,2013-01-02 16:30:00,
2013-01-02 10:35:00,32.9,21.7,30.13,WSW,248,5.6,9.8,63,0.01,,,0.02,WUHU216HW,2013-01-02 16:35:00,
2013-01-02 10:40:00,32.8,21.5,30.13,WSW,248,4.0,9.8,63,0.01,,,0.02,WUHU216HW,2013-01-02 16:40:00,
2013-01-02 10:45:00,32.6,21.3,30.13,WSW,248,6.3,6.9,63,0.01,,,0.02,WUHU216HW,2013-01-02 16:45:00,
2013-01-02 10:50:00,32.4,21.6,30.13,WSW,248,4.3,6.3,64,0.00,,,0.02,WUHU216HW,2013-01-02 16:50:00,
2013-01-02 10:55:00,32.8,21.5,30.12,West,270,6.9,6.9,63,0.00,,,0.02,WUHU216HW,2013-01-02 16:55:00,
2013-01-02 11:00:00,33.1,22.6,30.11,WSW,248,3.4,6.9,65,0.00,,,0.02,WUHU216HW,2013-01-02 17:00:00,
2013-01-02 11:05:00,33.5,22.1,30.12,SW,225,3.1,6.3,63,0.00,,,0.02,WUHU216HW,2013-01-02 17:05:00,
2013-01-02 11:10:00,32.9,21.3,30.11,SW,225,5.1,6.7,62,0.00,,,0.02,WUHU216HW,2013-01-02 17:10:00,
2013-01-02 11:15:00,32.8,21.2,30.11,SW,225,4.0,6.7,62,0.00,,,0.02,WUHU216HW,2013-01-02 17:15:00,
2013-01-02 11:20:00,32.6,21.3,30.11,SW,225,3.4,6.9,63,0.00,,,0.02,WUHU216HW,2013-01-02 17:20:00,
2013-01-02 11:25:00,32.8,21.2,30.11,SW,225,4.5,6.9,62,0.01,,,0.02,WUHU216HW,2013-01-02 17:25:00,
2013-01-02 11:30:00,32.6,21.3,30.11,SSW,203,3.4,6.0,63,0.01,,,0.02,WUHU216HW,2013-01-02 17:30:00,
2013-01-02 11:35:00,32.8,21.5,30.10,SSW,203,5.1,6.0,63,0.02,,,0.04,WUHU216HW,2013-01-02 17:35:00,
2013-01-02 11:40:00,33.5,22.1,30.10,SSW,203,3.4,5.4,63,0.02,,,0.04,WUHU216HW,2013-01-02 17:40:00,
2013-01-02 11:45:00,33.8,22.1,30.10,SSW,203,4.9,5.4,62,0.02,,,0.04,WUHU216HW,2013-01-02 17:45:00,
2013-01-02 11:50:00,33.5,21.8,30.09,SW,225,4.5,5.4,62,0.03,,,0.05,WUHU216HW,2013-01-02 17:50:00,
2013-01-02 11:55:00,33.7,22.0,30.10,South,180,3.1,5.8,62,0.03,,,0.05,WUHU216HW,2013-01-02 17:55:00,
2013-01-02 12:00:00,34.0,22.7,30.10,WSW,248,3.6,5.8,63,0.03,,,0.05,WUHU216HW,2013-01-02 18:00:00,
2013-01-02 12:05:00,34.7,23.0,30.10,SW,225,6.5,7.6,62,0.03,,,0.05,WUHU216HW,2013-01-02 18:05:00,
2013-01-02 12:10:00,34.2,22.1,30.09,SW,225,5.6,7.6,61,0.03,,,0.05,WUHU216HW,2013-01-02 18:10:00,
2013-01-02 12:15:00,34.2,22.1,30.09,SW,225,5.4,8.5,61,0.04,,,0.06,WUHU216HW,2013-01-02 18:15:00,
2013-01-02 12:20:00,34.6,22.5,30.09,SW,225,4.3,8.5,61,0.03,,,0.06,WUHU216HW,2013-01-02 18:20:00,
2013-01-02 12:25:00,34.9,23.2,30.09,West,270,8.1,8.1,62,0.03,,,0.06,WUHU216HW,2013-01-02 18:25:00,
2013-01-02 12:30:00,35.3,22.9,30.09,SW,225,4.3,8.5,60,0.03,,,0.06,WUHU216HW,2013-01-02 18:30:00,
2013-01-02 12:35:00,35.8,23.4,30.09,SW,225,4.0,8.5,60,0.02,,,0.06,WUHU216HW,2013-01-02 18:35:00,
2013-01-02 12:40:00,36.2,23.3,30.08,WSW,248,4.9,8.3,59,0.02,,,0.06,WUHU216HW,2013-01-02 18:40:00,
2013-01-02 12:45:00,36.7,24.2,30.08,WSW,248,2.7,4.9,60,0.02,,,0.06,WUHU216HW,2013-01-02 18:45:00,
2013-01-02 12:50:00,36.7,22.9,30.08,WSW,248,2.7,5.4,57,0.02,,,0.07,WUHU216HW,2013-01-02 18:50:00,
2013-01-02 12:55:00,36.2,22.4,30.08,WSW,248,5.6,5.8,57,0.02,,,0.07,WUHU216HW,2013-01-02 18:55:00,
2013-01-02 13:00:00,35.5,21.8,30.08,WSW,248,8.3,8.3,57,0.02,,,0.07,WUHU216HW,2013-01-02 19:00:00,
2013-01-02 13:05:00,35.3,22.4,30.08,SW,225,4.0,8.3,59,0.02,,,0.07,WUHU216HW,2013-01-02 19:05:00,
2013-01-02 13:10:00,36.0,23.1,30.08,SW,225,6.0,8.1,59,0.01,,,0.07,WUHU216HW,2013-01-02 19:10:00,
2013-01-02 13:15:00,35.3,22.0,30.07,SW,225,4.7,8.1,58,0.01,,,0.07,WUHU216HW,2013-01-02 19:15:00,
2013-01-02 13:20:00,34.4,21.1,30.08,SW,225,5.4,7.4,58,0.01,,,0.07,WUHU216HW,2013-01-02 19:20:00,
2013-01-02 13:25:00,34.2,21.8,30.07,WSW,248,4.7,7.6,60,0.01,,,0.07,WUHU216HW,2013-01-02 19:25:00,
2013-01-02 13:30:00,33.7,21.2,30.07,WSW,248,6.7,7.6,60,0.01,,,0.07,WUHU216HW,2013-01-02 19:30:00,
2013-01-02 13:35:00,33.7,21.6,30.07,WSW,248,5.6,6.9,61,0.01,,,0.07,WUHU216HW,2013-01-02 19:35:00,
2013-01-02 13:40:00,33.8,22.1,30.07,SW,225,5.1,7.4,62,0.01,,,0.07,WUHU216HW,2013-01-02 19:40:00,
2013-01-02 13:45:00,33.7,21.6,30.07,West,270,4.0,7.4,61,0.01,,,0.07,WUHU216HW,2013-01-02 19:45:00,
2013-01-02 13:50:00,33.7,22.0,30.07,West,270,6.5,8.3,62,0.00,,,0.07,WUHU216HW,2013-01-02 19:50:00,
2013-01-02 13:55:00,34.2,22.5,30.07,West,270,5.4,8.3,62,0.00,,,0.07,WUHU216HW,2013-01-02 19:55:00,
2013-01-02 14:00:00,34.7,22.7,30.08,West,270,5.1,8.5,61,0.00,,,0.07,WUHU216HW,2013-01-02 20:00:00,
2013-01-02 14:05:00,34.4,21.1,30.07,West,270,6.5,8.9,58,0.00,,,0.07,WUHU216HW,2013-01-02 20:05:00,
2013-01-02 14:10:00,34.2,21.3,30.08,WNW,293,5.8,8.9,59,0.00,,,0.07,WUHU216HW,2013-01-02 20:10:00,
2013-01-02 14:15:00,34.0,21.6,30.08,West,270,3.8,9.2,60,0.00,,,0.07,WUHU216HW,2013-01-02 20:15:00,
2013-01-02 14:20:00,34.6,22.1,30.08,WSW,248,6.3,9.2,60,0.00,,,0.07,WUHU216HW,2013-01-02 20:20:00,
2013-01-02 14:25:00,34.9,22.1,30.08,West,270,4.7,7.4,59,0.00,,,0.07,WUHU216HW,2013-01-02 20:25:00,
2013-01-02 14:30:00,34.2,20.9,30.08,WNW,293,5.4,8.7,58,0.00,,,0.07,WUHU216HW,2013-01-02 20:30:00,
2013-01-02 14:35:00,34.0,21.2,30.08,WSW,248,2.2,8.7,59,0.00,,,0.07,WUHU216HW,2013-01-02 20:35:00,
2013-01-02 14:40:00,34.9,22.5,30.08,NW,315,8.1,8.3,60,0.00,,,0.07,WUHU216HW,2013-01-02 20:40:00,
2013-01-02 14:45:00,35.3,22.0,30.08,NW,315,5.4,8.1,58,0.00,,,0.07,WUHU216HW,2013-01-02 20:45:00,
2013-01-02 14:50:00,34.9,20.8,30.08,West,270,4.0,8.1,56,0.00,,,0.07,WUHU216HW,2013-01-02 20:50:00,
2013-01-02 14:55:00,35.1,21.4,30.08,West,270,5.8,7.8,57,0.00,,,0.07,WUHU216HW,2013-01-02 20:55:00,
2013-01-02 15:00:00,35.5,22.1,30.08,NW,315,2.7,6.7,58,0.00,,,0.07,WUHU216HW,2013-01-02 21:00:00,
2013-01-02 15:05:00,35.5,21.8,30.08,West,270,6.9,6.9,57,0.00,,,0.07,WUHU216HW,2013-01-02 21:05:00,
2013-01-02 15:10:00,35.3,21.6,30.08,West,270,1.8,6.9,57,0.00,,,0.07,WUHU216HW,2013-01-02 21:10:00,
2013-01-02 15:15:00,34.9,21.3,30.08,SW,225,5.1,6.9,57,0.00,,,0.07,WUHU216HW,2013-01-02 21:15:00,
2013-01-02 15:20:00,34.6,20.4,30.08,SW,225,4.0,6.3,56,0.00,,,0.07,WUHU216HW,2013-01-02 21:20:00,
2013-01-02 15:25:00,33.5,19.8,30.09,WNW,293,4.0,6.3,57,0.00,,,0.07,WUHU216HW,2013-01-02 21:25:00,
2013-01-02 15:30:00,33.3,20.1,30.09,WSW,248,4.7,5.8,58,0.00,,,0.07,WUHU216HW,2013-01-02 21:30:00,
2013-01-02 15:35:00,33.3,20.5,30.09,WSW,248,2.7,5.8,59,0.00,,,0.07,WUHU216HW,2013-01-02 21:35:00,
2013-01-02 15:40:00,33.1,20.3,30.09,West,270,2.5,5.8,59,0.00,,,0.07,WUHU216HW,2013-01-02 21:40:00,
2013-01-02 15:45:00,32.9,20.6,30.09,West,270,2.9,5.8,60,0.00,,,0.07,WUHU216HW,2013-01-02 21:45:00,
2013-01-02 15:50:00,32.8,20.4,30.09,West,270,2.5,4.5,60,0.00,,,0.07,WUHU216HW,2013-01-02 21:50:00,
2013-01-02 15:55:00,32.6,20.3,30.09,West,270,3.4,4.9,60,0.00,,,0.07,WUHU216HW,2013-01-02 21:55:00,
2013-01-02 16:00:00,32.2,20.4,30.09,West,270,5.6,5.6,61,0.00,,,0.07,WUHU216HW,2013-01-02 22:00:00,
2013-01-02 16:05:00,31.9,20.3,30.09,WSW,248,1.8,5.6,62,0.00,,,0.07,WUHU216HW,2013-01-02 22:05:00,
2013-01-02 16:10:00,31.7,20.2,30.09,West,270,4.0,4.0,62,0.00,,,0.07,WUHU216HW,2013-01-02 22:10:00,
2013-01-02 16:15:00,31.5,20.0,30.10,WSW,248,2.5,4.0,62,0.00,,,0.07,WUHU216HW,2013-01-02 22:15:00,
2013-01-02 16:20:00,31.5,20.3,30.10,West,270,3.4,3.6,63,0.00,,,0.07,WUHU216HW,2013-01-02 22:20:00,
2013-01-02 16:25:00,31.7,20.5,30.10,West,270,1.6,3.4,63,0.00,,,0.07,WUHU216HW,2013-01-02 22:25:00,
2013-01-02 16:30:00,31.5,20.3,30.10,West,270,3.6,3.6,63,0.00,,,0.07,WUHU216HW,2013-01-02 22:30:00,
2013-01-02 16:35:00,31.3,20.9,30.11,NW,315,3.4,3.6,65,0.00,,,0.07,WUHU216HW,2013-01-02 22:35:00,
2013-01-02 16:40:00,31.1,21.1,30.11,WNW,293,5.4,5.4,66,0.00,,,0.07,WUHU216HW,2013-01-02 22:40:00,
2013-01-02 16:45:00,31.0,21.2,30.11,WNW,293,6.7,6.7,67,0.00,,,0.07,WUHU216HW,2013-01-02 22:45:00,
2013-01-02 16:50:00,30.6,21.2,30.11,West,270,8.5,8.5,68,0.00,,,0.07,WUHU216HW,2013-01-02 22:50:00,
2013-01-02 16:55:00,30.2,20.9,30.11,WNW,293,4.9,8.5,68,0.00,,,0.07,WUHU216HW,2013-01-02 22:55:00,
2013-01-02 17:00:00,30.2,21.2,30.12,WNW,293,6.5,6.9,69,0.00,,,0.07,WUHU216HW,2013-01-02 23:00:00,
2013-01-02 17:05:00,29.9,20.9,30.11,NW,315,4.5,6.9,69,0.00,,,0.07,WUHU216HW,2013-01-02 23:05:00,
2013-01-02 17:10:00,29.9,21.2,30.12,NW,315,6.5,6.5,70,0.00,,,0.07,WUHU216HW,2013-01-02 23:10:00,
2013-01-02 17:15:00,29.5,21.0,30.12,WNW,293,4.5,6.5,70,0.00,,,0.07,WUHU216HW,2013-01-02 23:15:00,
2013-01-02 17:20:00,29.3,20.8,30.13,WNW,293,4.0,4.9,70,0.00,,,0.07,WUHU216HW,2013-01-02 23:20:00,
2013-01-02 17:25:00,29.2,20.6,30.12,West,270,5.1,5.1,70,0.00,,,0.07,WUHU216HW,2013-01-02 23:25:00,
2013-01-02 17:30:00,29.0,20.4,30.13,West,270,2.0,5.1,70,0.00,,,0.07,WUHU216HW,2013-01-02 23:30:00,
2013-01-02 17:35:00,28.6,20.2,30.13,WNW,293,2.2,4.0,70,0.00,,,0.07,WUHU216HW,2013-01-02 23:35:00,
2013-01-02 17:40:00,28.6,20.2,30.13,West,270,3.4,3.6,70,0.00,,,0.07,WUHU216HW,2013-01-02 23:40:00,
2013-01-02 17:45:00,28.4,20.0,30.13,WSW,248,3.4,3.4,70,0.00,,,0.07,WUHU216HW,2013-01-02 23:45:00,
2013-01-02 17:50:00,28.4,20.0,30.13,West,270,2.5,3.4,70,0.00,,,0.07,WUHU216HW,2013-01-02 23:50:00,
2013-01-02 17:55:00,28.1,19.6,30.13,WSW,248,2.2,2.9,70,0.00,,,0.07,WUHU216HW,2013-01-02 23:55:00,
2013-01-02 18:00:00,27.9,19.4,30.13,West,270,0.9,2.9,70,0.00,,,0.07,WUHU216HW,2013-01-03 00:00:00,
2013-01-02 18:05:00,27.7,19.3,30.13,West,270,1.1,2.5,70,0.00,,,0.07,WUHU216HW,2013-01-03 00:05:00,
2013-01-02 18:10:00,27.5,19.1,30.14,West,270,1.1,1.3,70,0.00,,,0.07,WUHU216HW,2013-01-03 00:10:00,
2013-01-02 18:15:00,27.4,18.9,30.14,West,270,1.8,1.8,70,0.00,,,0.07,WUHU216HW,2013-01-03 00:15:00,
2013-01-02 18:20:00,27.2,18.7,30.14,West,270,2.5,2.5,70,0.00,,,0.07,WUHU216HW,2013-01-03 00:20:00,
2013-01-02 18:25:00,27.0,18.5,30.14,West,270,0.9,2.5,70,0.00,,,0.07,WUHU216HW,2013-01-03 00:25:00,
2013-01-02 18:30:00,26.8,18.4,30.14,West,270,1.3,1.8,70,0.00,,,0.07,WUHU216HW,2013-01-03 00:30:00,
2013-01-02 18:35:00,26.6,18.2,30.14,West,270,1.8,2.2,70,0.00,,,0.07,WUHU216HW,2013-01-03 00:35:00,
2013-01-02 18:40:00,26.3,17.8,30.15,WSW,248,0.9,2.2,70,0.00,,,0.07,WUHU216HW,2013-01-03 00:40:00,
2013-01-02 18:45:00,26.1,17.9,30.15,West,270,1.3,1.6,71,0.00,,,0.07,WUHU216HW,2013-01-03 00:45:00,
2013-01-02 18:50:00,26.1,17.9,30.15,West,270,1.1,2.9,71,0.00,,,0.07,WUHU216HW,2013-01-03 00:50:00,
2013-01-02 18:56:00,25.9,18.1,30.15,West,270,2.2,2.9,72,0.00,,,0.07,WUHU216HW,2013-01-03 00:56:00,
2013-01-02 19:01:00,25.6,17.7,30.16,West,270,2.2,3.4,72,0.00,,,0.07,WUHU216HW,2013-01-03 01:01:00,
2013-01-02 19:06:00,25.6,17.7,30.16,WSW,248,1.6,3.4,72,0.00,,,0.07,WUHU216HW,2013-01-03 01:06:00,
2013-01-02 19:11:00,25.4,17.6,30.16,WSW,248,1.8,2.5,72,0.00,,,0.07,WUHU216HW,2013-01-03 01:11:00,
2013-01-02 19:16:00,25.4,17.6,30.16,West,270,2.5,2.5,72,0.00,,,0.07,WUHU216HW,2013-01-03 01:16:00,
2013-01-02 19:21:00,25.4,17.6,30.16,WSW,248,1.3,2.5,72,0.00,,,0.07,WUHU216HW,2013-01-03 01:21:00,
2013-01-02 19:26:00,25.4,17.9,30.16,West,270,3.4,3.4,73,0.00,,,0.07,WUHU216HW,2013-01-03 01:26:00,
2013-01-02 19:31:00,25.6,18.4,30.16,West,270,1.8,3.4,74,0.00,,,0.07,WUHU216HW,2013-01-03 01:31:00,
2013-01-02 19:36:00,25.7,18.8,30.16,West,270,2.0,2.5,75,0.00,,,0.07,WUHU216HW,2013-01-03 01:36:00,
2013-01-02 19:41:00,25.9,18.7,30.16,WSW,248,1.6,2.7,74,0.00,,,0.07,WUHU216HW,2013-01-03 01:41:00,
2013-01-02 19:46:00,26.1,18.9,30.16,West,270,1.8,2.7,74,0.00,,,0.07,WUHU216HW,2013-01-03 01:46:00,
2013-01-02 19:51:00,26.3,19.4,30.16,West,270,2.9,3.4,75,0.00,,,0.07,WUHU216HW,2013-01-03 01:51:00,
2013-01-02 19:56:00,26.5,19.5,30.16,WSW,248,1.8,3.4,75,0.00,,,0.07,WUHU216HW,2013-01-03 01:56:00,
2013-01-02 20:01:00,26.6,19.7,30.16,West,270,1.8,3.6,75,0.00,,,0.07,WUHU216HW,2013-01-03 02:01:00,
2013-01-02 20:06:00,26.8,19.9,30.16,West,270,2.0,3.6,75,0.00,,,0.07,WUHU216HW,2013-01-03 02:06:00,
2013-01-02 20:11:00,26.8,19.9,30.16,WSW,248,0.4,2.0,75,0.00,,,0.07,WUHU216HW,2013-01-03 02:11:00,
2013-01-02 20:16:00,27.0,20.1,30.16,WSW,248,0.2,1.8,75,0.00,,,0.07,WUHU216HW,2013-01-03 02:16:00,
2013-01-02 20:21:00,27.0,20.1,30.16,West,270,1.3,1.8,75,0.00,,,0.07,WUHU216HW,2013-01-03 02:21:00,
2013-01-02 20:26:00,27.0,20.1,30.16,SW,225,0.4,1.6,75,0.00,,,0.07,WUHU216HW,2013-01-03 02:26:00,
2013-01-02 20:31:00,27.0,20.1,30.16,SW,225,1.1,1.1,75,0.00,,,0.07,WUHU216HW,2013-01-03 02:31:00,
2013-01-02 20:36:00,27.0,20.1,30.16,West,270,0.7,2.2,75,0.00,,,0.07,WUHU216HW,2013-01-03 02:36:00,
2013-01-02 20:40:00,27.0,20.1,30.17,WSW,248,0.4,2.2,75,0.00,,,0.07,WUHU216HW,2013-01-03 02:40:00,
2013-01-02 20:46:00,27.0,20.1,30.17,WSW,248,0.7,1.3,75,0.00,,,0.07,WUHU216HW,2013-01-03 02:46:00,
2013-01-02 20:50:00,27.0,20.1,30.17,WSW,248,0.4,1.1,75,0.00,,,0.07,WUHU216HW,2013-01-03 02:50:00,
2013-01-02 20:55:00,27.2,20.5,30.17,West,270,1.3,1.3,76,0.00,,,0.07,WUHU216HW,2013-01-03 02:55:00,
2013-01-02 21:00:00,27.4,20.7,30.17,WNW,293,1.8,2.7,76,0.00,,,0.07,WUHU216HW,2013-01-03 03:00:00,
2013-01-02 21:05:00,27.4,20.7,30.17,West,270,1.6,2.7,76,0.00,,,0.07,WUHU216HW,2013-01-03 03:05:00,
2013-01-02 21:10:00,27.4,20.7,30.18,West,270,2.9,3.6,76,0.00,,,0.07,WUHU216HW,2013-01-03 03:10:00,
2013-01-02 21:15:00,27.5,21.3,30.18,WNW,293,3.1,3.8,77,0.00,,,0.07,WUHU216HW,2013-01-03 03:15:00,
2013-01-02 21:20:00,27.7,21.7,30.17,West,270,2.7,4.9,78,0.00,,,0.07,WUHU216HW,2013-01-03 03:20:00,
2013-01-02 21:25:00,27.7,21.7,30.18,NW,315,4.0,4.9,78,0.00,,,0.07,WUHU216HW,2013-01-03 03:25:00,
2013-01-02 21:31:00,27.7,22.1,30.18,WNW,293,3.4,4.0,79,0.00,,,0.07,WUHU216HW,2013-01-03 03:31:00,
2013-01-02 21:36:00,27.9,22.2,30.18,NW,315,4.5,4.5,79,0.00,,,0.07,WUHU216HW,2013-01-03 03:36:00,
2013-01-02 21:41:00,27.9,22.5,30.18,NW,315,4.9,5.4,80,0.00,,,0.07,WUHU216HW,2013-01-03 03:41:00,
2013-01-02 21:46:00,28.3,22.6,30.18,West,270,3.4,5.4,79,0.00,,,0.07,WUHU216HW,2013-01-03 03:46:00,
2013-01-02 21:51:00,28.3,22.6,30.18,WNW,293,3.6,4.9,79,0.00,,,0.07,WUHU216HW,2013-01-03 03:51:00,
2013-01-02 21:56:00,28.4,22.8,30.19,West,270,4.7,4.7,79,0.00,,,0.07,WUHU216HW,2013-01-03 03:56:00,
2013-01-02 22:01:00,28.4,22.8,30.19,WNW,293,3.1,4.7,79,0.00,,,0.07,WUHU216HW,2013-01-03 04:01:00,
2013-01-02 22:06:00,28.6,23.0,30.19,West,270,3.4,3.6,79,0.00,,,0.07,WUHU216HW,2013-01-03 04:06:00,
2013-01-02 22:11:00,28.8,23.1,30.19,WNW,293,2.2,4.3,79,0.00,,,0.07,WUHU216HW,2013-01-03 04:11:00,
2013-01-02 22:16:00,28.8,23.1,30.19,West,270,3.6,4.3,79,0.00,,,0.07,WUHU216HW,2013-01-03 04:16:00,
2013-01-02 22:21:00,29.0,23.6,30.19,WNW,293,3.8,4.7,80,0.00,,,0.07,WUHU216HW,2013-01-03 04:21:00,
2013-01-02 22:26:00,29.2,23.8,30.19,NW,315,3.8,4.7,80,0.00,,,0.07,WUHU216HW,2013-01-03 04:26:00,
2013-01-02 22:31:00,29.2,23.8,30.19,WNW,293,3.1,4.3,80,0.00,,,0.07,WUHU216HW,2013-01-03 04:31:00,
2013-01-02 22:36:00,29.3,23.9,30.19,WNW,293,3.6,4.5,80,0.00,,,0.07,WUHU216HW,2013-01-03 04:36:00,
2013-01-02 22:41:00,29.5,24.4,30.19,NW,315,4.0,4.5,81,0.00,,,0.07,WUHU216HW,2013-01-03 04:41:00,
2013-01-02 22:46:00,29.5,24.4,30.19,WNW,293,1.3,4.0,81,0.00,,,0.07,WUHU216HW,2013-01-03 04:46:00,
2013-01-02 22:51:00,29.5,24.1,30.20,NW,315,2.5,3.1,80,0.00,,,0.07,WUHU216HW,2013-01-03 04:51:00,
2013-01-02 22:56:00,29.5,24.1,30.20,NW,315,1.8,3.1,80,0.00,,,0.07,WUHU216HW,2013-01-03 04:56:00,
2013-01-02 23:00:00,29.5,24.1,30.20,WNW,293,0.9,3.1,80,0.00,,,0.07,WUHU216HW,2013-01-03 05:00:00,
2013-01-02 23:01:00,29.5,24.1,30.20,WNW,293,0.9,3.1,80,0.00,,,0.07,WUHU216HW,2013-01-03 05:01:00,
2013-01-02 23:02:00,29.7,24.3,30.20,WNW,293,0.2,3.1,80,0.00,,,0.07,WUHU216HW,2013-01-03 05:02:00,
2013-01-02 23:07:00,29.7,24.3,30.20,WNW,293,0.4,1.8,80,0.00,,,0.07,WUHU216HW,2013-01-03 05:07:00,
2013-01-02 23:12:00,29.9,24.5,30.20,WNW,293,2.2,3.4,80,0.00,,,0.07,WUHU216HW,2013-01-03 05:12:00,
2013-01-02 23:17:00,29.9,24.5,30.20,WNW,293,2.2,3.4,80,0.00,,,0.07,WUHU216HW,2013-01-03 05:17:00,
2013-01-02 23:22:00,29.9,24.5,30.20,WNW,293,1.6,2.9,80,0.00,,,0.07,WUHU216HW,2013-01-03 05:22:00,
2013-01-02 23:27:00,29.9,24.1,30.21,WNW,293,0.9,2.9,79,0.00,,,0.07,WUHU216HW,2013-01-03 05:27:00,
2013-01-02 23:32:00,29.7,23.9,30.21,West,270,1.3,2.0,79,0.00,,,0.07,WUHU216HW,2013-01-03 05:32:00,
2013-01-02 23:37:00,29.5,23.8,30.21,WNW,293,1.8,1.8,79,0.00,,,0.07,WUHU216HW,2013-01-03 05:37:00,
2013-01-02 23:42:00,29.3,23.7,30.21,West,270,1.3,2.2,79,0.00,,,0.07,WUHU216HW,2013-01-03 05:42:00,
2013-01-02 23:47:00,29.0,23.0,30.21,West,270,2.2,2.2,78,0.00,,,0.07,WUHU216HW,2013-01-03 05:47:00,
2013-01-02 23:52:00,28.6,22.6,30.21,WNW,293,2.5,2.5,78,0.00,,,0.07,WUHU216HW,2013-01-03 05:52:00,
2013-01-02 23:57:00,28.3,22.2,30.20,West,270,1.3,2.5,78,0.00,,,0.07,WUHU216HW,2013-01-03 05:57:00,